Latest Weather Observations for Tindal

IDD60801

Issued at 4:31 pm CST Wednesday 1 June 2016 (issued every 30 minutes, with the page automatically refreshed every 10 minutes)

About weather observations | Map of weather stations | Latest weather observations for NT | Other Formats
Station Details ID: 014932 Name: TINDAL RAAF Lat: -14.52 Lon: 132.38 Height: 133.6 m
Data from the previous 72 hours. | See also: Recent months at Tindal
Date/Time
CST
Temp
°C
App
Temp
°C
Dew
Point
Rel
Hum
%
Delta-T
°C
Wind Press
QNH
hPa
Press
MSL
hPa
Rain
since 9 am
mm
Dir
 
Spd
km/h
Gust
km/h
Spd
kts
Gust
kts
01/04:30pm 33.3 31.6 15.8 35 11.0 SE 19 28 10 15 1011.8 - 0.0
01/04:00pm 33.3 32.2 15.3 34 11.3 E 15 20 8 11 1011.8 - 0.0
01/03:30pm 32.8 30.9 15.8 36 10.7 SE 20 30 11 16 1012.1 - 0.0
01/03:00pm 33.7 32.3 16.5 35 11.0 E 19 28 10 15 1012.2 1011.6 0.0
01/02:30pm 33.6 31.6 16.5 36 10.9 ESE 22 33 12 18 1012.5 - 0.0
01/02:00pm 32.7 31.0 17.3 39 9.9 ESE 22 32 12 17 1013.0 - 0.0
01/01:30pm 32.5 31.3 17.5 40 9.6 ESE 20 30 11 16 1013.6 - 0.0
01/01:00pm 31.6 30.9 18.2 44 8.7 ESE 19 32 10 17 1014.2 - 0.0
01/12:30pm 32.2 31.4 18.4 44 9.0 E 20 28 11 15 1014.8 - 0.0
01/12:00pm 30.9 30.2 18.6 48 8.0 SE 20 26 11 14 1015.3 1014.8 0.0
01/11:30am 30.6 31.1 19.3 51 7.4 ENE 15 24 8 13 1015.9 - 0.0
01/11:00am 29.5 29.5 18.9 53 6.9 E 17 26 9 14 1016.4 - 0.0
01/10:30am 28.9 29.2 19.5 57 6.1 E 17 24 9 13 1016.7 - 0.0
01/10:00am 27.8 28.3 20.1 63 5.1 SE 17 22 9 12 1016.9 - 0.0
01/09:30am 27.4 28.2 20.7 67 4.4 E 17 28 9 15 1016.9 - 0.0
01/09:00am 26.1 26.5 20.7 72 3.6 ESE 19 30 10 16 1016.8 1016.2 0.0
01/08:30am 24.8 26.1 20.1 75 3.1 ESE 13 15 7 8 1016.6 - 0.0
01/08:00am 23.2 25.0 19.6 80 2.3 ESE 9 13 5 7 1016.6 - 0.0
01/07:30am 21.9 22.8 19.3 85 1.7 SE 13 15 7 8 1016.2 - 0.0
01/07:00am 21.5 22.7 19.1 86 1.5 SE 11 15 6 8 1015.7 - 0.0
01/06:30am 21.1 22.2 18.9 87 1.4 SE 11 15 6 8 1015.4 - 0.0
01/06:00am 21.4 22.1 18.8 85 1.6 SSE 13 13 7 7 1014.9 1014.4 0.0
01/05:30am 21.1 22.6 18.9 87 1.4 SSE 9 11 5 6 1014.5 - 0.0
01/05:00am 21.2 22.9 18.4 84 1.8 S 7 9 4 5 1014.2 - 0.0
01/04:30am 21.9 22.9 18.7 82 2.0 S 11 11 6 6 1014.1 - 0.0
01/04:00am 22.0 23.3 18.4 80 2.3 S 9 11 5 6 1013.9 - 0.0
01/03:30am 22.4 23.3 18.4 78 2.5 SE 11 13 6 7 1014.0 - 0.0
01/03:00am 23.5 25.3 18.2 72 3.3 SE 6 7 3 4 1014.0 1013.5 0.0
01/02:30am 25.3 26.8 19.0 68 4.0 E 9 15 5 8 1014.1 - 0.0
01/02:00am 25.7 26.8 18.9 66 4.4 E 11 17 6 9 1014.3 - 0.0
01/01:30am 26.2 26.7 18.3 61 5.0 ESE 13 20 7 11 1014.6 - 0.0
01/01:00am 26.8 26.8 18.1 59 5.5 E 15 20 8 11 1014.4 - 0.0
01/12:30am 27.3 26.5 18.0 56 5.9 E 19 30 10 16 1014.4 - 0.0
01/12:00am 27.5 26.3 17.1 53 6.5 E 19 24 10 13 1014.7 1014.1 0.0
 
Date/Time
CST
Temp
°C
App
Temp
°C
Dew
Point
Rel
Hum
%
Delta-T
°C
Wind Press
QNH
hPa
Press
MSL
hPa
Rain
since 9 am
mm
Dir
 
Spd
km/h
Gust
km/h
Spd
kts
Gust
kts
31/11:30pm 27.2 27.2 17.1 54 6.3 ESE 13 17 7 9 1015.0 - 0.0
31/11:00pm 26.5 26.4 17.0 56 5.9 ESE 13 13 7 7 1015.2 - 0.0
31/10:30pm 26.6 26.4 16.8 55 6.1 ESE 13 17 7 9 1015.2 - 0.0
31/10:00pm 26.3 27.0 17.1 57 5.8 SE 9 11 5 6 1014.9 - 0.0
31/09:30pm 25.4 26.4 17.8 62 4.8 SE 9 11 5 6 1014.6 - 0.0
31/09:00pm 25.3 26.3 17.7 62 4.8 SSE 9 13 5 7 1014.3 1013.7 0.0
31/08:30pm 25.9 27.2 17.5 59 5.3 SE 7 7 4 4 1013.9 - 0.0
31/08:00pm 26.2 27.5 17.6 59 5.4 ESE 7 9 4 5 1013.5 - 0.0
31/07:30pm 27.3 28.6 17.5 55 6.2 SE 7 9 4 5 1013.2 - 0.0
31/07:00pm 29.6 30.0 16.4 45 8.3 ESE 9 11 5 6 1012.9 - 0.0
31/06:30pm 30.3 30.3 16.3 42 8.8 ESE 11 13 6 7 1012.6 - 0.0
31/06:00pm 32.0 31.3 15.5 37 10.3 SE 13 15 7 8 1012.4 1011.7 0.0
31/05:30pm 33.0 32.0 15.5 35 11.0 ESE 15 20 8 11 1012.0 - 0.0
31/05:00pm 33.7 32.6 15.2 33 11.6 SE 15 20 8 11 1011.8 - 0.0
31/04:30pm 34.1 33.7 15.1 32 11.9 E 11 19 6 10 1011.8 - 0.0
31/04:00pm 34.2 32.5 14.7 31 12.1 E 17 24 9 13 1011.7 - 0.0
31/03:30pm 34.5 32.7 14.4 30 12.4 E 17 24 9 13 1011.7 - 0.0
31/03:00pm 34.2 32.1 14.7 31 12.1 E 19 30 10 16 1011.9 1011.2 0.0
31/02:30pm 34.3 32.4 15.2 31 12.0 E 19 32 10 17 1012.2 - 0.0
31/02:00pm 34.0 33.5 15.9 33 11.4 SSE 13 19 7 10 1012.7 - 0.0
31/01:30pm 33.7 33.4 16.5 35 10.9 SE 13 19 7 10 1013.2 - 0.0
31/01:00pm 32.8 32.6 16.6 38 10.3 E 13 22 7 12 1013.9 - 0.0
31/12:30pm 32.0 32.2 16.7 40 9.7 E 11 22 6 12 1014.5 - 0.0
31/12:00pm 32.4 32.8 18.2 42 9.2 SE 13 20 7 11 1015.0 1014.4 0.0
31/11:30am 31.1 30.6 17.8 45 8.6 ESE 17 22 9 12 1015.6 - 0.0
31/11:00am 30.9 30.2 18.3 47 8.2 E 19 24 10 13 1015.7 - 0.0
31/10:30am 29.3 30.4 19.6 56 6.4 NE 13 20 7 11 1016.2 - 0.0
31/10:00am 28.8 29.5 19.7 58 6.0 ENE 15 22 8 12 1016.4 - 0.0
31/09:30am 27.9 28.2 20.5 64 4.9 ENE 19 26 10 14 1016.3 - 0.0
31/09:00am 27.2 28.5 20.8 68 4.2 E 15 20 8 11 1016.3 1015.6 0.0
31/08:30am 25.6 27.7 20.2 72 3.5 ESE 9 13 5 7 1016.2 - 0.0
31/08:00am 24.6 27.0 20.1 76 2.9 ESE 7 9 4 5 1015.7 - 0.0
31/07:30am 22.8 24.9 20.1 85 1.7 S 9 9 5 5 1015.3 - 0.0
31/07:00am 22.4 24.4 19.9 86 1.6 E 9 11 5 6 1014.8 - 0.0
31/06:30am 22.1 24.3 19.6 86 1.6 SE 7 9 4 5 1014.8 - 0.0
31/06:00am 22.7 26.3 19.7 83 1.9 CALM 0 0 0 0 1014.6 1014.0 0.0
31/05:30am 23.3 25.8 19.9 81 2.2 SE 6 6 3 3 1014.5 - 0.0
31/05:00am 23.7 26.2 19.8 79 2.5 SE 6 7 3 4 1014.5 - 0.0
31/04:30am 24.4 26.8 20.1 77 2.8 E 7 9 4 5 1014.2 - 0.0
31/04:00am 24.8 27.2 20.1 75 3.1 E 7 9 4 5 1014.1 - 0.0
31/03:30am 25.2 27.6 20.0 73 3.4 ESE 7 9 4 5 1014.2 - 0.0
31/03:00am 25.9 27.6 20.2 71 3.7 E 11 13 6 7 1014.3 1013.7 0.0
31/02:30am 26.1 28.2 20.2 70 3.9 E 9 13 5 7 1014.3 - 0.0
31/02:00am 26.9 29.1 20.3 67 4.3 ESE 9 13 5 7 1014.4 - 0.0
31/01:30am 26.9 28.5 20.0 66 4.5 E 11 13 6 7 1014.3 - 0.0
31/01:00am 27.2 28.6 19.5 62 5.0 E 11 19 6 10 1014.5 - 0.0
31/12:30am 27.7 28.3 19.5 61 5.3 E 15 22 8 12 1014.4 - 0.0
31/12:00am 26.2 27.6 18.6 63 4.9 E 9 11 5 6 1014.4 1013.8 0.0
 
Date/Time
CST
Temp
°C
App
Temp
°C
Dew
Point
Rel
Hum
%
Delta-T
°C
Wind Press
QNH
hPa
Press
MSL
hPa
Rain
since 9 am
mm
Dir
 
Spd
km/h
Gust
km/h
Spd
kts
Gust
kts
30/11:30pm 25.5 26.2 17.9 63 4.8 SE 11 13 6 7 1014.5 - 0.0
30/11:00pm 26.7 26.8 17.5 57 5.8 SE 13 17 7 9 1014.4 - 0.0
30/10:30pm 27.7 27.8 17.5 53 6.5 ESE 13 20 7 11 1014.4 - 0.0
30/10:00pm 24.4 25.5 18.8 71 3.6 SE 11 15 6 8 1014.2 - 0.0
30/09:30pm 24.5 27.6 18.7 70 3.7 CALM 0 0 0 0 1014.0 - 0.0
30/09:00pm 25.1 28.3 18.8 68 4.0 CALM 0 0 0 0 1013.9 1013.3 0.0
30/08:30pm 25.6 28.8 18.8 66 4.4 CALM 0 0 0 0 1013.6 - 0.0
30/08:00pm 26.0 27.8 18.4 63 4.8 SSE 6 9 3 5 1013.3 - 0.0
30/07:30pm 27.4 30.3 18.1 57 5.9 CALM 0 0 0 0 1012.9 - 0.0
30/07:00pm 28.8 31.6 18.0 52 6.9 CALM 0 0 0 0 1012.6 - 0.0
30/06:30pm 30.0 31.1 17.1 46 8.2 SSE 7 7 4 4 1012.0 - 0.0
30/06:00pm 32.6 32.7 15.6 36 10.6 E 9 13 5 7 1011.7 1011.0 0.0
30/05:30pm 33.3 32.4 14.8 32 11.5 E 13 17 7 9 1011.4 - 0.0
30/05:00pm 33.8 32.5 14.8 32 11.8 E 15 20 8 11 1011.3 - 0.0
30/04:30pm 34.1 32.9 15.1 32 11.9 ENE 15 22 8 12 1011.1 - 0.0
30/04:00pm 34.6 34.1 15.0 31 12.2 E 11 20 6 11 1011.0 - 0.0
30/03:30pm 34.3 33.1 16.2 34 11.5 E 17 24 9 13 1011.0 - 0.0
30/03:00pm 33.5 33.0 15.9 34 11.1 E 13 24 7 13 1011.1 1010.4 0.0
30/02:30pm 34.4 33.4 16.7 34 11.3 ENE 17 28 9 15 1011.4 - 0.0
30/02:00pm 33.8 32.8 16.6 35 11.0 E 17 20 9 11 1011.8 - 0.0
30/01:30pm 33.3 31.9 17.0 37 10.4 NE 20 28 11 15 1012.3 - 0.0
30/01:00pm 32.9 31.7 17.5 39 9.9 E 20 28 11 15 1013.0 - 0.0
30/12:30pm 32.5 31.4 16.3 37 10.2 E 17 30 9 16 1013.6 - 0.0
30/12:00pm 31.9 30.7 17.4 42 9.3 E 20 30 11 16 1014.1 1013.5 0.0
30/11:30am 31.8 33.1 18.4 45 8.7 ENE 9 20 5 11 1014.5 - 0.0
30/11:00am 31.3 31.5 18.6 46 8.3 E 15 22 8 12 1015.0 - 0.0
30/10:30am 30.4 31.2 19.1 50 7.4 NE 13 20 7 11 1015.4 - 0.0
30/10:00am 29.5 30.9 19.5 55 6.6 ENE 11 20 6 11 1015.9 - 0.0
30/09:30am 28.4 30.0 19.9 60 5.6 ENE 11 17 6 9 1016.2 - 0.0
30/09:00am 27.3 29.4 20.1 64 4.7 ENE 9 13 5 7 1015.8 1015.2 0.0
30/08:30am 25.1 27.3 19.2 70 3.8 ESE 6 7 3 4 1015.7 - 0.0
30/08:00am 22.8 24.8 18.8 78 2.5 SE 6 7 3 4 1015.5 - 0.0
30/07:30am 21.1 22.6 18.1 83 1.9 S 7 7 4 4 1015.1 - 0.0
30/07:00am 20.7 22.3 18.3 86 1.5 S 7 9 4 5 1014.5 - 0.0
30/06:30am 20.9 22.1 18.3 85 1.6 SSE 9 9 5 5 1014.0 - 0.0
30/06:00am 21.1 22.3 18.3 84 1.8 SE 9 11 5 6 1013.7 1013.1 0.0
30/05:30am 21.4 22.6 18.2 82 2.0 SE 9 11 5 6 1013.5 - 0.0
30/05:00am 22.7 24.3 18.3 76 2.8 SSE 7 9 4 5 1013.4 - 0.0
30/04:30am 24.9 26.1 19.0 69 3.8 ENE 11 15 6 8 1013.3 - 0.0
30/04:00am 24.6 25.8 19.0 71 3.6 ENE 11 15 6 8 1013.3 - 0.0
30/03:30am 22.4 23.5 18.0 76 2.8 SSE 9 9 5 5 1013.5 - 0.0
30/03:00am 22.8 23.9 18.1 75 3.0 S 9 11 5 6 1013.6 1013.0 0.0
30/02:30am 22.8 24.2 17.9 74 3.1 SSE 7 9 4 5 1013.6 - 0.0
30/02:00am 22.8 23.9 18.1 75 3.0 SE 9 13 5 7 1013.7 - 0.0
30/01:30am 22.7 23.4 18.0 75 2.9 SSE 11 11 6 6 1013.8 - 0.0
30/01:00am 22.9 24.6 18.0 74 3.1 ESE 6 7 3 4 1013.8 - 0.0
30/12:30am 23.5 26.4 18.2 72 3.3 CALM 0 0 0 0 1013.8 - 0.0
30/12:00am 23.5 24.7 18.2 72 3.3 SE 9 13 5 7 1014.0 1013.4 0.0
 
Date/Time
CST
Temp
°C
App
Temp
°C
Dew
Point
Rel
Hum
%
Delta-T
°C
Wind Press
QNH
hPa
Press
MSL
hPa
Rain
since 9 am
mm
Dir
 
Spd
km/h
Gust
km/h
Spd
kts
Gust
kts
29/11:30pm 23.8 25.4 18.2 71 3.5 ESE 7 13 4 7 1014.2 - 0.0
29/11:00pm 23.7 25.4 18.4 72 3.4 SE 7 9 4 5 1014.1 - 0.0
29/10:30pm 23.5 25.4 18.6 74 3.1 ESE 6 7 3 4 1014.1 - 0.0
29/10:00pm 24.3 27.3 18.5 70 3.7 CALM 0 0 0 0 1013.8 - 0.0
29/09:30pm 24.7 27.7 18.4 68 4.0 CALM 0 0 0 0 1013.8 - 0.0
29/09:00pm 25.0 26.8 18.4 66 4.2 SSE 6 7 3 4 1013.7 1013.1 0.0
29/08:30pm 26.1 28.5 18.0 61 5.1 SE 2 9 1 5 1013.4 - 0.0
29/08:00pm 27.3 29.1 18.3 58 5.8 E 6 7 3 4 1013.0 - 0.0
29/07:30pm 28.4 29.7 17.6 52 6.9 E 7 9 4 5 1012.6 - 0.0
29/07:00pm 29.4 30.2 17.2 47 7.7 ESE 9 9 5 5 1012.5 - 0.0
29/06:30pm 30.6 31.7 17.0 44 8.6 ESE 7 9 4 5 1012.2 - 0.0
29/06:00pm 32.2 31.8 16.1 38 10.1 SE 13 15 7 8 1011.7 1011.0 0.0
29/05:30pm 33.3 32.1 16.2 36 10.8 ESE 17 24 9 13 1011.2 - 0.0
29/05:00pm 33.9 32.2 15.8 33 11.4 E 19 24 10 13 1010.8 - 0.0

Other Formats:

Comma delimited format used in spreadsheet applications
http://www.bom.gov.au/fwo/IDD60801/IDD60801.94131.axf

JavaScript Object Notation format (JSON) in row-major order
http://www.bom.gov.au/fwo/IDD60801/IDD60801.94131.json